createdAt,value
2023-03-10T00:01:58.726Z,9.76
2023-03-10T00:04:02.888Z,9.81
2023-03-10T00:06:06.325Z,9.70
2023-03-10T00:08:09.140Z,9.65
2023-03-10T00:10:14.477Z,9.68
2023-03-10T00:12:17.364Z,9.64
2023-03-10T00:14:20.201Z,9.57
2023-03-10T00:16:26.291Z,9.55
2023-03-10T00:18:29.208Z,9.63
2023-03-10T00:20:32.110Z,9.61
2023-03-10T00:22:35.064Z,9.56
2023-03-10T00:24:37.727Z,9.67
2023-03-10T00:26:40.371Z,9.63
2023-03-10T00:28:43.661Z,9.62
2023-03-10T00:30:46.347Z,9.59
2023-03-10T00:32:50.880Z,9.57
2023-03-10T00:34:53.572Z,9.60
2023-03-10T00:36:56.276Z,9.58
2023-03-10T00:39:01.278Z,9.59
2023-03-10T00:41:06.859Z,9.50
2023-03-10T00:43:09.466Z,9.51
2023-03-10T00:45:12.390Z,9.50
2023-03-10T00:47:15.519Z,9.47
2023-03-10T00:49:19.499Z,9.45
2023-03-10T00:51:23.125Z,9.45
2023-03-10T00:53:26.997Z,9.52
2023-03-10T00:55:29.795Z,9.46
2023-03-10T00:57:32.550Z,9.50
2023-03-10T00:59:49.399Z,9.45
2023-03-10T01:01:54.224Z,9.47
2023-03-10T01:03:59.093Z,9.48
2023-03-10T01:06:03.174Z,9.42
2023-03-10T01:08:06.134Z,9.39
2023-03-10T01:10:09.945Z,9.35
2023-03-10T01:12:12.561Z,9.35
2023-03-10T01:14:17.032Z,9.31
2023-03-10T01:16:19.896Z,9.30
2023-03-10T01:18:23.253Z,9.23
2023-03-10T01:20:25.865Z,9.21
2023-03-10T01:22:29.768Z,9.14
2023-03-10T01:24:32.409Z,9.19
2023-03-10T01:26:35.430Z,9.13
2023-03-10T01:28:38.116Z,9.03
2023-03-10T01:30:41.712Z,9.05
2023-03-10T01:32:44.686Z,9.00
2023-03-10T01:34:47.400Z,9.03
2023-03-10T01:36:50.000Z,9.02
2023-03-10T01:38:55.479Z,9.08
2023-03-10T01:40:58.134Z,9.07
2023-03-10T01:43:27.707Z,8.97
2023-03-10T01:46:07.665Z,9.01
2023-03-10T01:48:10.284Z,9.05
2023-03-10T01:50:18.382Z,9.01
2023-03-10T01:52:23.178Z,9.10
2023-03-10T01:54:31.863Z,9.15
2023-03-10T01:56:35.910Z,9.15
2023-03-10T01:58:41.499Z,9.11
2023-03-10T02:00:44.896Z,9.15
2023-03-10T02:02:53.851Z,9.11
2023-03-10T02:04:58.525Z,9.16
2023-03-10T02:07:03.437Z,9.17
2023-03-10T02:09:06.719Z,9.28
2023-03-10T02:11:10.699Z,9.23
2023-03-10T02:13:13.311Z,9.30
2023-03-10T02:15:15.937Z,9.28
2023-03-10T02:17:22.607Z,9.27
2023-03-10T02:19:36.897Z,9.31
2023-03-10T02:21:50.613Z,9.36
2023-03-10T02:24:02.008Z,9.44
2023-03-10T02:26:11.206Z,9.38
2023-03-10T02:28:15.269Z,9.40
2023-03-10T02:30:22.220Z,9.36
2023-03-10T02:32:25.640Z,9.34
2023-03-10T02:34:29.283Z,9.24
2023-03-10T02:36:31.862Z,9.26
2023-03-10T02:38:34.461Z,9.24
2023-03-10T02:40:40.246Z,9.19
2023-03-10T02:42:42.873Z,9.14
2023-03-10T02:44:49.031Z,9.07
2023-03-10T02:46:52.166Z,9.06
2023-03-10T02:48:55.018Z,9.06
2023-03-10T02:50:58.993Z,9.02
2023-03-10T02:53:08.811Z,9.00
2023-03-10T02:55:15.982Z,8.96
2023-03-10T02:57:18.883Z,8.91
2023-03-10T02:59:21.448Z,8.82
2023-03-10T03:01:26.250Z,8.85
2023-03-10T03:03:29.161Z,8.81
2023-03-10T03:05:31.980Z,8.78
2023-03-10T03:07:34.650Z,8.71
2023-03-10T03:09:37.313Z,8.66
2023-03-10T03:11:40.009Z,8.71
2023-03-10T03:13:43.140Z,8.70
2023-03-10T03:15:45.829Z,8.72
2023-03-10T03:17:49.916Z,8.70
2023-03-10T03:19:52.536Z,8.68
2023-03-10T03:21:55.137Z,8.62
2023-03-10T03:23:57.944Z,8.56
2023-03-10T03:26:00.630Z,8.56
2023-03-10T03:28:03.290Z,8.52
2023-03-10T03:30:07.430Z,8.55
2023-03-10T03:32:10.216Z,8.60
2023-03-10T03:34:15.537Z,8.54
2023-03-10T03:36:18.632Z,8.51
2023-03-10T03:38:21.299Z,8.52
2023-03-10T03:40:25.641Z,8.49
2023-03-10T03:42:28.278Z,8.47
2023-03-10T03:44:30.935Z,8.52
2023-03-10T03:46:33.683Z,8.59
2023-03-10T03:48:36.446Z,8.53
2023-03-10T03:50:40.515Z,8.57
2023-03-10T03:52:44.294Z,8.60
2023-03-10T03:54:46.920Z,8.59
2023-03-10T03:56:49.492Z,8.62
2023-03-10T03:58:52.101Z,8.58
2023-03-10T04:00:54.684Z,8.57
2023-03-10T04:02:57.316Z,8.56
2023-03-10T04:05:00.032Z,8.58
2023-03-10T04:07:04.659Z,8.51
2023-03-10T04:09:07.927Z,8.55
2023-03-10T04:11:10.759Z,8.56
2023-03-10T04:13:13.340Z,8.56
2023-03-10T04:15:16.576Z,8.61
2023-03-10T04:17:19.205Z,8.63
2023-03-10T04:19:21.804Z,8.63
2023-03-10T04:21:24.425Z,8.55
2023-03-10T04:23:28.554Z,8.52
2023-03-10T04:25:31.683Z,8.48
2023-03-10T04:27:34.976Z,8.52
2023-03-10T04:29:38.192Z,8.50
2023-03-10T04:31:41.096Z,8.48
2023-03-10T04:33:43.958Z,8.46
2023-03-10T04:35:48.932Z,8.41
2023-03-10T04:37:51.626Z,8.36
2023-03-10T04:39:57.102Z,8.37
2023-03-10T04:41:59.722Z,8.34
2023-03-10T04:44:02.412Z,8.33
2023-03-10T04:46:06.121Z,8.33
2023-03-10T04:48:08.832Z,8.44
2023-03-10T04:50:17.341Z,8.42
2023-03-10T04:52:19.999Z,8.43
2023-03-10T04:54:22.700Z,8.48
2023-03-10T04:56:26.736Z,8.48
2023-03-10T04:58:29.490Z,8.45
2023-03-10T05:00:32.551Z,8.54
2023-03-10T05:02:35.531Z,8.51
2023-03-10T05:04:39.326Z,8.51
2023-03-10T05:06:42.077Z,8.43
2023-03-10T05:08:44.804Z,8.44
2023-03-10T05:10:47.888Z,8.39
2023-03-10T05:12:51.912Z,8.37
2023-03-10T05:14:54.521Z,8.42
2023-03-10T05:16:57.177Z,8.35
2023-03-10T05:18:59.898Z,8.27
2023-03-10T05:21:02.483Z,8.35
2023-03-10T05:23:09.349Z,8.35
2023-03-10T05:25:16.960Z,8.43
2023-03-10T05:27:21.867Z,8.39
2023-03-10T05:29:26.095Z,8.32
2023-03-10T05:31:28.970Z,8.30
2023-03-10T05:33:31.651Z,8.24
2023-03-10T05:35:34.376Z,8.37
2023-03-10T05:37:39.244Z,8.39
2023-03-10T05:39:43.765Z,8.38
2023-03-10T05:41:46.418Z,8.36
2023-03-10T05:43:49.016Z,8.41
2023-03-10T05:45:57.886Z,8.48
2023-03-10T05:48:00.556Z,8.55
2023-03-10T05:50:03.261Z,8.55
2023-03-10T05:52:07.206Z,8.62
2023-03-10T05:54:09.873Z,8.66
2023-03-10T05:56:15.205Z,8.66
2023-03-10T05:58:17.818Z,8.64
2023-03-10T06:00:21.423Z,8.64
2023-03-10T06:02:25.544Z,8.63
2023-03-10T06:04:32.182Z,8.57
2023-03-10T06:06:35.240Z,8.47
2023-03-10T06:08:38.144Z,8.47
2023-03-10T06:10:40.883Z,8.32
2023-03-10T06:12:43.494Z,8.18
2023-03-10T06:14:46.125Z,8.01
2023-03-10T06:16:51.585Z,7.93
2023-03-10T06:18:56.900Z,7.90
2023-03-10T06:21:00.046Z,7.86
2023-03-10T06:23:02.671Z,7.87
2023-03-10T06:25:06.019Z,7.94
2023-03-10T06:27:08.686Z,7.90
2023-03-10T06:29:11.407Z,7.98
2023-03-10T06:31:16.242Z,7.87
2023-03-10T06:33:18.982Z,7.81
2023-03-10T06:35:22.969Z,7.77
2023-03-10T06:37:25.660Z,7.80
2023-03-10T06:39:29.239Z,7.75
2023-03-10T06:41:31.934Z,7.82
2023-03-10T06:43:35.102Z,7.79
2023-03-10T06:45:37.853Z,7.83
2023-03-10T06:47:40.590Z,7.82
2023-03-10T06:49:43.268Z,7.76
2023-03-10T06:51:47.248Z,7.77
2023-03-10T06:53:50.856Z,7.76
2023-03-10T06:56:01.088Z,7.73
2023-03-10T06:58:03.811Z,7.72
2023-03-10T07:00:11.399Z,7.78
2023-03-10T07:02:14.432Z,7.80
2023-03-10T07:04:17.092Z,7.90
2023-03-10T07:06:19.790Z,7.95
2023-03-10T07:08:23.817Z,7.88
2023-03-10T07:10:26.457Z,7.93
2023-03-10T07:12:29.164Z,7.91
2023-03-10T07:14:31.800Z,7.94
2023-03-10T07:16:34.476Z,8.02
2023-03-10T07:18:37.181Z,7.98
2023-03-10T07:20:40.923Z,8.08
2023-03-10T07:22:43.652Z,8.07
2023-03-10T07:24:47.605Z,8.21
2023-03-10T07:26:50.286Z,8.27
2023-03-10T07:28:54.265Z,8.17
2023-03-10T07:30:57.714Z,8.29
2023-03-10T07:33:00.400Z,8.27
2023-03-10T07:35:03.214Z,8.38
2023-03-10T07:37:05.831Z,8.43
2023-03-10T07:39:08.581Z,8.46
2023-03-10T07:41:15.948Z,8.44
2023-03-10T07:43:18.536Z,8.39
2023-03-10T07:45:21.882Z,8.36
2023-03-10T07:47:24.515Z,8.39
2023-03-10T07:49:27.108Z,8.48
2023-03-10T07:51:29.783Z,8.51
2023-03-10T07:53:33.235Z,8.54
2023-03-10T07:55:35.960Z,8.58
2023-03-10T07:57:39.931Z,8.67
2023-03-10T07:59:43.234Z,8.69
2023-03-10T08:01:45.870Z,8.61
2023-03-10T08:03:50.019Z,8.64
2023-03-10T08:05:53.093Z,8.66
2023-03-10T08:07:55.751Z,8.76
2023-03-10T08:09:58.649Z,8.62
2023-03-10T08:12:02.283Z,8.41
2023-03-10T08:14:06.482Z,8.02
2023-03-10T08:16:09.858Z,7.85
2023-03-10T08:18:12.779Z,7.81
2023-03-10T08:20:15.657Z,7.81
2023-03-10T08:22:18.362Z,7.64
2023-03-10T08:24:21.020Z,7.50
2023-03-10T08:26:23.665Z,7.38
2023-03-10T08:28:28.806Z,7.27
2023-03-10T08:30:32.796Z,7.30
2023-03-10T08:32:35.529Z,7.30
2023-03-10T08:34:38.230Z,7.38
2023-03-10T08:36:41.237Z,7.38
2023-03-10T08:38:44.897Z,7.43
2023-03-10T08:40:47.610Z,7.49
2023-03-10T08:42:50.239Z,7.32
2023-03-10T08:44:56.177Z,7.42
2023-03-10T08:47:00.251Z,7.48
2023-03-10T08:49:03.116Z,7.46
2023-03-10T08:51:07.018Z,7.54
2023-03-10T08:53:09.639Z,7.82
2023-03-10T08:55:12.702Z,8.06
2023-03-10T08:57:15.395Z,8.06
2023-03-10T08:59:19.200Z,8.16
2023-03-10T09:01:21.890Z,8.63
2023-03-10T09:03:27.965Z,9.69
2023-03-10T09:05:32.230Z,10.25
2023-03-10T09:07:34.892Z,11.45
2023-03-10T09:09:37.603Z,10.29
2023-03-10T09:11:41.670Z,9.73
2023-03-10T09:13:44.506Z,9.05
2023-03-10T09:15:47.242Z,9.27
2023-03-10T09:17:50.026Z,10.10
2023-03-10T09:19:53.987Z,10.51
2023-03-10T09:21:57.547Z,10.58
2023-03-10T09:24:00.780Z,10.63
2023-03-10T09:26:03.390Z,10.58
2023-03-10T09:28:06.174Z,10.70
2023-03-10T09:30:09.731Z,10.63
2023-03-10T09:32:12.736Z,10.37
2023-03-10T09:34:16.237Z,10.73
2023-03-10T09:36:20.378Z,10.80
2023-03-10T09:38:23.116Z,10.43
2023-03-10T09:40:26.293Z,10.35
2023-03-10T09:42:38.492Z,10.25
2023-03-10T09:44:44.689Z,10.00
2023-03-10T09:46:54.810Z,9.98
2023-03-10T09:49:05.056Z,10.06
2023-03-10T09:51:15.419Z,10.03
2023-03-10T09:53:37.585Z,10.00
2023-03-10T09:55:47.913Z,9.69
2023-03-10T09:57:53.260Z,9.67
2023-03-10T10:00:01.154Z,9.78
2023-03-10T10:02:15.695Z,9.62
2023-03-10T10:04:22.817Z,9.59
2023-03-10T10:06:28.863Z,9.83
2023-03-10T10:08:44.987Z,10.04
2023-03-10T10:10:55.392Z,9.75
2023-03-10T10:13:04.294Z,9.80
2023-03-10T10:15:16.820Z,9.59
2023-03-10T10:17:26.543Z,9.59
2023-03-10T10:19:29.878Z,9.73
2023-03-10T10:21:42.617Z,9.65
2023-03-10T10:23:51.121Z,9.59
2023-03-10T10:25:54.678Z,9.70
2023-03-10T10:27:58.111Z,9.52
2023-03-10T10:30:30.188Z,9.52
2023-03-10T10:32:32.966Z,9.43
2023-03-10T10:34:37.506Z,9.49
2023-03-10T10:36:51.954Z,9.54
2023-03-10T10:38:56.286Z,9.62
2023-03-10T10:41:05.819Z,9.71
2023-03-10T10:43:17.673Z,9.59
2023-03-10T10:45:28.428Z,9.45
2023-03-10T10:47:34.242Z,9.41
2023-03-10T10:49:37.625Z,9.20
2023-03-10T10:51:40.722Z,9.33
2023-03-10T10:53:43.898Z,9.31
2023-03-10T10:55:49.082Z,9.40
2023-03-10T10:57:56.740Z,9.51
2023-03-10T11:00:18.394Z,9.67
2023-03-10T11:02:31.106Z,9.68
2023-03-10T11:04:45.104Z,9.68
2023-03-10T11:06:47.955Z,9.67
2023-03-10T11:08:52.093Z,9.73
2023-03-10T11:10:59.424Z,9.85
2023-03-10T11:13:09.403Z,9.89
2023-03-10T11:15:23.680Z,9.86
2023-03-10T11:17:32.169Z,9.75
2023-03-10T11:19:52.592Z,9.87
2023-03-10T11:22:02.100Z,9.99
2023-03-10T11:24:15.013Z,10.03
2023-03-10T11:26:28.788Z,9.99
2023-03-10T11:28:50.261Z,10.12
2023-03-10T11:31:03.504Z,10.08
2023-03-10T11:33:17.565Z,10.05
2023-03-10T11:35:27.187Z,9.67
2023-03-10T11:37:36.244Z,9.79
2023-03-10T11:39:48.931Z,9.85
2023-03-10T11:41:54.863Z,9.83
2023-03-10T11:44:01.397Z,9.69
2023-03-10T11:46:09.675Z,9.80
2023-03-10T11:48:27.434Z,9.81
2023-03-10T11:50:39.582Z,9.90
2023-03-10T11:52:43.566Z,9.61
2023-03-10T11:54:49.653Z,9.57
2023-03-10T11:56:53.118Z,9.40
2023-03-10T11:58:59.156Z,9.54
2023-03-10T12:01:02.908Z,9.49
2023-03-10T12:03:14.306Z,9.40
2023-03-10T12:05:21.873Z,9.65
2023-03-10T12:07:30.567Z,10.00
2023-03-10T12:09:40.732Z,9.70
2023-03-10T12:11:43.442Z,9.78
2023-03-10T12:13:49.154Z,9.56
2023-03-10T12:15:56.236Z,9.99
2023-03-10T12:17:59.433Z,10.08
2023-03-10T12:20:23.737Z,10.16
2023-03-10T12:22:39.496Z,10.63
2023-03-10T12:24:48.006Z,10.54
2023-03-10T12:27:04.840Z,10.18
2023-03-10T12:29:25.126Z,10.18
2023-03-10T12:31:46.266Z,10.06
2023-03-10T12:33:52.308Z,10.26
2023-03-10T12:36:02.355Z,10.33
2023-03-10T12:38:29.722Z,10.19
2023-03-10T12:40:52.226Z,9.68
2023-03-10T12:42:54.906Z,9.70
2023-03-10T12:45:18.009Z,9.83
2023-03-10T12:47:30.399Z,9.58
2023-03-10T12:49:37.325Z,9.75
2023-03-10T12:51:44.036Z,9.73
2023-03-10T12:53:55.654Z,9.68
2023-03-10T12:56:23.841Z,9.61
2023-03-10T12:58:28.629Z,9.80
2023-03-10T13:00:41.780Z,9.47
2023-03-10T13:02:51.424Z,9.66
2023-03-10T13:04:59.850Z,9.68
2023-03-10T13:07:04.172Z,9.52
2023-03-10T13:09:23.081Z,9.30
2023-03-10T13:11:35.665Z,9.52
2023-03-10T13:13:39.003Z,9.62
2023-03-10T13:15:41.741Z,9.70
2023-03-10T13:17:44.439Z,9.93
2023-03-10T13:19:57.820Z,9.80
2023-03-10T13:22:00.509Z,9.34
2023-03-10T13:24:05.698Z,9.26
2023-03-10T13:26:17.634Z,9.49
2023-03-10T13:28:20.341Z,9.51
2023-03-10T13:30:26.435Z,9.44
2023-03-10T13:32:29.737Z,9.55
2023-03-10T13:34:34.656Z,9.14
2023-03-10T13:36:39.355Z,9.12
2023-03-10T13:38:43.350Z,9.19
2023-03-10T13:40:47.957Z,9.18
2023-03-10T13:42:51.985Z,9.22
2023-03-10T13:44:56.211Z,9.59
2023-03-10T13:47:00.748Z,9.58
2023-03-10T13:49:07.121Z,9.64
2023-03-10T13:51:20.267Z,9.52
2023-03-10T13:53:26.238Z,9.88
2023-03-10T13:55:29.902Z,9.48
2023-03-10T13:57:35.787Z,9.40
2023-03-10T13:59:39.830Z,9.30
2023-03-10T14:01:47.359Z,9.39
2023-03-10T14:03:52.489Z,9.03
2023-03-10T14:05:55.185Z,9.11
2023-03-10T14:08:01.657Z,9.10
2023-03-10T14:10:20.028Z,9.02
2023-03-10T14:12:36.975Z,9.28
2023-03-10T14:14:42.206Z,8.87
2023-03-10T14:16:47.399Z,8.91
2023-03-10T14:18:50.156Z,9.16
2023-03-10T14:20:52.876Z,8.98
2023-03-10T14:22:55.642Z,9.00
2023-03-10T14:24:59.660Z,9.09
2023-03-10T14:27:02.439Z,8.96
2023-03-10T14:29:14.266Z,8.87
2023-03-10T14:31:22.405Z,8.88
2023-03-10T14:33:25.229Z,8.81
2023-03-10T14:35:29.853Z,8.76
2023-03-10T14:37:32.519Z,8.72
2023-03-10T14:39:35.262Z,8.84
2023-03-10T14:41:37.934Z,8.73
2023-03-10T14:43:42.109Z,8.58
2023-03-10T14:45:45.905Z,8.59
2023-03-10T14:47:50.138Z,8.47
2023-03-10T14:49:53.115Z,8.52
2023-03-10T14:51:55.936Z,8.67
2023-03-10T14:53:58.736Z,8.34
2023-03-10T14:56:03.209Z,8.47
2023-03-10T14:58:06.604Z,8.37
2023-03-10T15:00:12.973Z,8.23
2023-03-10T15:02:21.298Z,8.35
2023-03-10T15:04:25.361Z,8.27
2023-03-10T15:06:28.203Z,8.24
2023-03-10T15:08:30.986Z,8.27
2023-03-10T15:10:36.904Z,8.26
2023-03-10T15:12:40.583Z,8.20
2023-03-10T15:14:45.759Z,8.14
2023-03-10T15:16:48.403Z,8.14
2023-03-10T15:18:53.020Z,8.11
2023-03-10T15:20:58.969Z,8.12
2023-03-10T15:23:01.652Z,7.94
2023-03-10T15:25:04.555Z,7.96
2023-03-10T15:27:07.442Z,7.97
2023-03-10T15:29:14.059Z,7.72
2023-03-10T15:31:16.777Z,7.68
2023-03-10T15:33:19.472Z,7.72
2023-03-10T15:35:23.175Z,7.87
2023-03-10T15:37:27.226Z,7.88
2023-03-10T15:39:32.640Z,7.84
2023-03-10T15:41:36.577Z,7.87
2023-03-10T15:43:39.198Z,7.98
2023-03-10T15:45:43.607Z,7.75
2023-03-10T15:47:46.789Z,7.97
2023-03-10T15:49:49.575Z,7.77
2023-03-10T15:51:52.280Z,7.89
2023-03-10T15:53:56.301Z,7.77
2023-03-10T15:55:58.882Z,7.90
2023-03-10T15:58:01.558Z,8.00
2023-03-10T16:00:05.670Z,7.91
2023-03-10T16:02:10.708Z,8.02
2023-03-10T16:04:13.308Z,8.19
2023-03-10T16:06:16.054Z,8.13
2023-03-10T16:08:19.161Z,8.18
2023-03-10T16:10:23.390Z,8.02
2023-03-10T16:12:26.324Z,8.04
2023-03-10T16:14:30.839Z,8.17
2023-03-10T16:16:33.856Z,8.06
2023-03-10T16:18:37.457Z,8.14
2023-03-10T16:20:40.544Z,8.00
2023-03-10T16:22:43.690Z,8.28
2023-03-10T16:24:46.636Z,8.04
2023-03-10T16:26:50.791Z,8.25
2023-03-10T16:28:54.784Z,7.86
2023-03-10T16:30:57.635Z,7.86
2023-03-10T16:33:01.666Z,7.79
2023-03-10T16:35:05.295Z,7.70
2023-03-10T16:37:08.491Z,7.81
2023-03-10T16:39:12.910Z,7.69
2023-03-10T16:41:15.830Z,7.71
2023-03-10T16:43:20.020Z,7.57
2023-03-10T16:45:22.766Z,7.52
2023-03-10T16:47:25.767Z,7.26
2023-03-10T16:49:28.461Z,6.30
2023-03-10T16:51:37.723Z,5.83
2023-03-10T16:53:40.798Z,5.96
2023-03-10T16:55:43.533Z,6.01
2023-03-10T16:57:47.016Z,6.03
2023-03-10T16:59:51.572Z,5.81
2023-03-10T17:01:55.137Z,5.90
2023-03-10T17:03:58.088Z,5.95
2023-03-10T17:06:00.883Z,5.93
2023-03-10T17:08:06.034Z,5.97
2023-03-10T17:10:10.798Z,5.94
2023-03-10T17:12:13.746Z,5.93
2023-03-10T17:14:17.663Z,5.86
2023-03-10T17:16:24.600Z,5.96
2023-03-10T17:18:27.623Z,5.98
2023-03-10T17:20:30.626Z,5.97
2023-03-10T17:22:33.410Z,6.01
2023-03-10T17:24:36.287Z,5.87
2023-03-10T17:26:39.207Z,5.92
2023-03-10T17:28:43.638Z,6.01
2023-03-10T17:30:46.248Z,6.06
2023-03-10T17:32:50.945Z,6.00
2023-03-10T17:34:53.835Z,5.96
2023-03-10T17:36:56.534Z,6.03
2023-03-10T17:39:01.642Z,5.98
2023-03-10T17:41:06.340Z,6.03
2023-03-10T17:43:23.255Z,5.93
2023-03-10T17:45:32.137Z,5.89
2023-03-10T17:47:35.306Z,5.81
2023-03-10T17:49:41.031Z,5.77
2023-03-10T17:51:45.043Z,5.72
2023-03-10T17:53:48.127Z,5.69
2023-03-10T17:55:51.330Z,5.61
2023-03-10T17:57:54.096Z,5.64
2023-03-10T17:59:57.186Z,5.55
2023-03-10T18:02:00.742Z,5.56
2023-03-10T18:04:03.544Z,5.57
2023-03-10T18:06:13.628Z,5.52
2023-03-10T18:08:16.705Z,5.55
2023-03-10T18:10:20.233Z,5.55
2023-03-10T18:12:23.184Z,5.78
2023-03-10T18:14:26.855Z,5.84
2023-03-10T18:16:32.306Z,5.88
2023-03-10T18:18:35.469Z,5.83
2023-03-10T18:20:38.659Z,5.78
2023-03-10T18:22:42.812Z,5.65
2023-03-10T18:24:45.841Z,5.61
2023-03-10T18:26:48.906Z,5.66
2023-03-10T18:28:51.769Z,5.62
2023-03-10T18:30:54.565Z,5.66
2023-03-10T18:32:57.491Z,5.66
2023-03-10T18:35:02.440Z,5.69
2023-03-10T18:37:05.105Z,5.59
2023-03-10T18:39:09.212Z,5.51
2023-03-10T18:41:12.810Z,5.50
2023-03-10T18:43:16.445Z,5.25
2023-03-10T18:45:21.433Z,5.35
2023-03-10T18:47:24.476Z,5.29
2023-03-10T18:49:27.082Z,5.29
2023-03-10T18:51:30.776Z,5.34
2023-03-10T18:53:34.024Z,5.41
2023-03-10T18:55:38.254Z,5.16
2023-03-10T18:57:40.976Z,5.03
2023-03-10T18:59:43.957Z,4.45
2023-03-10T19:01:46.778Z,4.27
2023-03-10T19:03:49.634Z,4.38
2023-03-10T19:05:55.782Z,4.38
2023-03-10T19:07:58.678Z,4.46
2023-03-10T19:10:01.480Z,4.54
2023-03-10T19:12:05.869Z,4.54
2023-03-10T19:14:08.859Z,4.54
2023-03-10T19:16:12.540Z,4.57
2023-03-10T19:18:15.313Z,4.57
2023-03-10T19:20:19.033Z,4.58
2023-03-10T19:22:22.024Z,4.75
2023-03-10T19:24:25.422Z,4.78
2023-03-10T19:26:28.081Z,4.87
2023-03-10T19:28:32.365Z,4.83
2023-03-10T19:30:35.531Z,4.85
2023-03-10T19:32:38.818Z,4.89
2023-03-10T19:34:41.873Z,4.91
2023-03-10T19:36:46.361Z,4.82
2023-03-10T19:38:49.769Z,4.88
2023-03-10T19:40:52.459Z,4.72
2023-03-10T19:42:55.173Z,4.82
2023-03-10T19:44:59.280Z,4.85
2023-03-10T19:47:02.194Z,4.83
2023-03-10T19:49:06.910Z,4.85
2023-03-10T19:51:18.386Z,4.82
2023-03-10T19:53:21.424Z,4.75
2023-03-10T19:55:26.470Z,4.69
2023-03-10T19:57:29.245Z,4.38
2023-03-10T19:59:32.114Z,4.25
2023-03-10T20:01:39.043Z,4.12
2023-03-10T20:03:43.020Z,4.10
2023-03-10T20:05:47.441Z,4.05
2023-03-10T20:07:50.076Z,4.07
2023-03-10T20:09:52.751Z,4.00
2023-03-10T20:11:56.873Z,3.92
2023-03-10T20:13:59.738Z,3.86
2023-03-10T20:16:03.230Z,3.61
2023-03-10T20:18:07.676Z,3.71
2023-03-10T20:20:12.494Z,3.70
2023-03-10T20:22:18.809Z,3.76
2023-03-10T20:24:21.755Z,3.70
2023-03-10T20:26:24.986Z,3.79
2023-03-10T20:28:27.672Z,3.77
2023-03-10T20:30:31.684Z,3.81
2023-03-10T20:32:34.699Z,3.81
2023-03-10T20:34:41.444Z,3.78
2023-03-10T20:36:44.550Z,3.71
2023-03-10T20:38:48.152Z,3.88
2023-03-10T20:40:51.022Z,3.83
2023-03-10T20:42:56.638Z,3.85
2023-03-10T20:45:02.436Z,3.91
2023-03-10T20:47:05.263Z,3.85
2023-03-10T20:49:08.187Z,3.88
2023-03-10T20:51:14.986Z,3.69
2023-03-10T20:53:17.719Z,3.39
2023-03-10T20:55:23.153Z,2.34
2023-03-10T20:57:26.096Z,2.17
2023-03-10T20:59:29.181Z,2.07
2023-03-10T21:01:32.367Z,2.04
2023-03-10T21:03:35.226Z,2.07
2023-03-10T21:05:37.877Z,2.07
2023-03-10T21:07:42.645Z,2.13
2023-03-10T21:09:45.960Z,2.19
2023-03-10T21:11:48.866Z,2.25
2023-03-10T21:13:51.932Z,2.20
2023-03-10T21:15:55.320Z,2.28
2023-03-10T21:17:58.496Z,2.23
2023-03-10T21:20:01.277Z,2.32
2023-03-10T21:22:04.338Z,2.40
2023-03-10T21:24:08.817Z,2.41
2023-03-10T21:26:13.148Z,2.49
2023-03-10T21:28:16.182Z,2.52
2023-03-10T21:30:19.915Z,2.48
2023-03-10T21:32:22.704Z,2.48
2023-03-10T21:34:25.757Z,2.58
2023-03-10T21:36:28.832Z,2.66
2023-03-10T21:38:31.444Z,2.54
2023-03-10T21:40:35.963Z,2.67
2023-03-10T21:42:38.774Z,2.63
2023-03-10T21:44:41.671Z,2.69
2023-03-10T21:46:44.414Z,2.61
2023-03-10T21:48:47.076Z,2.72
2023-03-10T21:50:49.952Z,2.68
2023-03-10T21:52:52.851Z,2.67
2023-03-10T21:54:55.709Z,2.70
2023-03-10T21:57:00.207Z,2.69
2023-03-10T21:59:02.921Z,2.81
2023-03-10T22:01:07.567Z,2.83
2023-03-10T22:03:10.276Z,2.81
2023-03-10T22:05:14.539Z,2.88
2023-03-10T22:07:17.389Z,2.80
2023-03-10T22:09:20.142Z,2.78
2023-03-10T22:11:23.298Z,2.80
2023-03-10T22:13:27.475Z,2.87
2023-03-10T22:15:30.554Z,2.82
2023-03-10T22:17:33.262Z,2.77
2023-03-10T22:19:36.434Z,2.76
2023-03-10T22:21:39.227Z,2.78
2023-03-10T22:23:43.639Z,2.67
2023-03-10T22:25:46.506Z,2.81
2023-03-10T22:27:50.883Z,2.69
2023-03-10T22:29:55.100Z,2.69
2023-03-10T22:31:58.128Z,2.67
2023-03-10T22:34:01.206Z,2.62
2023-03-10T22:36:05.228Z,2.56
2023-03-10T22:38:07.966Z,2.52
2023-03-10T22:40:14.348Z,2.50
2023-03-10T22:42:17.009Z,2.39
2023-03-10T22:44:19.661Z,2.37
2023-03-10T22:46:23.690Z,2.24
2023-03-10T22:48:26.664Z,2.30
2023-03-10T22:50:32.954Z,2.46
2023-03-10T22:52:35.829Z,2.47
2023-03-10T22:54:38.738Z,2.42
2023-03-10T22:56:41.645Z,2.36
2023-03-10T22:58:44.759Z,2.42
2023-03-10T23:00:47.518Z,2.39
2023-03-10T23:02:53.703Z,2.29
2023-03-10T23:04:56.978Z,2.39
2023-03-10T23:06:59.640Z,2.20
2023-03-10T23:09:03.095Z,2.38
2023-03-10T23:11:10.164Z,2.42
2023-03-10T23:13:15.273Z,2.38
2023-03-10T23:15:25.157Z,2.27
2023-03-10T23:17:28.283Z,2.34
2023-03-10T23:19:34.628Z,2.22
2023-03-10T23:21:37.571Z,2.24
2023-03-10T23:23:43.503Z,2.25
2023-03-10T23:25:48.666Z,2.22
2023-03-10T23:27:51.437Z,2.09
2023-03-10T23:29:54.020Z,2.16
2023-03-10T23:31:56.634Z,2.11
2023-03-10T23:33:59.295Z,2.06
2023-03-10T23:36:03.283Z,2.00
2023-03-10T23:38:06.872Z,2.09
2023-03-10T23:40:13.316Z,2.20
2023-03-10T23:42:15.873Z,2.09
2023-03-10T23:44:20.848Z,2.13
2023-03-10T23:46:23.846Z,2.06
2023-03-10T23:48:26.544Z,1.98
2023-03-10T23:50:31.206Z,1.96
2023-03-10T23:52:35.448Z,1.92
2023-03-10T23:54:38.076Z,1.93
2023-03-10T23:56:40.647Z,1.95
2023-03-10T23:58:43.394Z,1.83
